createdAt,value
2023-03-23T00:04:32.609Z,39
2023-03-23T00:09:49.017Z,31
2023-03-23T00:15:05.471Z,38
2023-03-23T00:20:21.844Z,37
2023-03-23T00:25:38.314Z,34
2023-03-23T00:30:54.688Z,34
2023-03-23T00:36:11.726Z,41
2023-03-23T00:41:28.173Z,36
2023-03-23T00:46:44.550Z,35
2023-03-23T00:52:00.989Z,36
2023-03-23T00:57:17.410Z,39
2023-03-23T01:02:33.789Z,35
2023-03-23T01:07:50.189Z,35
2023-03-23T01:13:06.641Z,36
2023-03-23T01:18:23.015Z,40
2023-03-23T01:23:39.456Z,33
2023-03-23T01:28:56.403Z,38
2023-03-23T01:34:13.153Z,32
2023-03-23T01:39:29.259Z,33
2023-03-23T01:44:46.216Z,36
2023-03-23T01:50:02.609Z,31
2023-03-23T01:55:19.054Z,37
2023-03-23T02:00:35.434Z,37
2023-03-23T02:05:51.573Z,36
2023-03-23T02:11:08.014Z,34
2023-03-23T02:16:24.406Z,31
2023-03-23T02:21:40.924Z,34
2023-03-23T02:26:57.341Z,36
2023-03-23T02:32:13.718Z,32
2023-03-23T02:37:30.717Z,37
2023-03-23T02:42:47.144Z,34
2023-03-23T02:48:03.542Z,34
2023-03-23T02:53:19.972Z,33
2023-03-23T02:58:36.918Z,36
2023-03-23T03:03:53.894Z,34
2023-03-23T03:09:10.342Z,31
2023-03-23T03:14:26.724Z,32
2023-03-23T03:19:42.890Z,33
2023-03-23T03:24:59.352Z,32
2023-03-23T03:30:15.742Z,33
2023-03-23T03:35:32.211Z,31
2023-03-23T03:40:48.581Z,38
2023-03-23T03:46:04.977Z,30
2023-03-23T03:51:21.402Z,28
2023-03-23T03:56:37.801Z,34
2023-03-23T04:01:54.243Z,32
2023-03-23T04:07:10.638Z,30
2023-03-23T04:12:27.025Z,28
2023-03-23T04:17:43.842Z,27
2023-03-23T04:22:59.925Z,32
2023-03-23T04:28:16.894Z,31
2023-03-23T04:33:59.462Z,35
2023-03-23T04:38:49.697Z,28
2023-03-23T04:44:06.123Z,26
2023-03-23T04:49:22.604Z,26
2023-03-23T04:54:39.296Z,26
2023-03-23T04:59:56.104Z,65
2023-03-23T05:05:12.519Z,31
2023-03-23T05:10:28.929Z,38
2023-03-23T05:15:45.370Z,38
2023-03-23T05:21:01.756Z,36
2023-03-23T05:26:18.177Z,37
2023-03-23T05:31:34.609Z,36
2023-03-23T05:36:51.007Z,38
2023-03-23T05:42:07.309Z,62
2023-03-23T05:47:24.326Z,60
2023-03-23T05:52:40.747Z,51
2023-03-23T05:57:57.176Z,43
2023-03-23T06:03:13.662Z,58
2023-03-23T06:08:29.820Z,38
2023-03-23T06:13:46.344Z,56
2023-03-23T06:19:02.746Z,46
2023-03-23T06:24:19.120Z,66
2023-03-23T06:29:36.145Z,74
2023-03-23T06:34:52.503Z,82
2023-03-23T06:40:09.581Z,69
2023-03-23T06:45:25.781Z,68
2023-03-23T06:50:42.781Z,58
2023-03-23T06:55:59.408Z,57
2023-03-23T07:01:15.818Z,51
2023-03-23T07:06:32.650Z,58
2023-03-23T07:11:49.100Z,53
2023-03-23T07:17:05.472Z,52
2023-03-23T07:22:24.223Z,48
2023-03-23T07:27:38.691Z,44
2023-03-23T07:32:54.843Z,43
2023-03-23T07:38:11.284Z,44
2023-03-23T07:43:27.898Z,55
2023-03-23T07:48:44.349Z,48
2023-03-23T07:54:00.787Z,50
2023-03-23T07:59:17.262Z,50
2023-03-23T08:04:34.023Z,42
2023-03-23T08:09:50.435Z,33
2023-03-23T08:15:07.392Z,37
2023-03-23T08:20:23.810Z,31
2023-03-23T08:25:40.935Z,34
2023-03-23T08:30:57.175Z,33
2023-03-23T08:36:13.667Z,34
2023-03-23T08:41:29.687Z,29
2023-03-23T08:46:46.077Z,34
2023-03-23T08:52:02.995Z,41
2023-03-23T08:57:19.380Z,37
2023-03-23T09:02:35.773Z,26
2023-03-23T09:07:52.153Z,30
2023-03-23T09:13:08.500Z,25
2023-03-23T09:18:24.899Z,25
2023-03-23T09:23:41.293Z,16
2023-03-23T09:28:57.618Z,19
2023-03-23T09:34:14.012Z,21
2023-03-23T09:39:30.329Z,19
2023-03-23T09:44:47.225Z,41
2023-03-23T09:50:04.193Z,35
2023-03-23T09:55:20.875Z,21
2023-03-23T10:00:37.373Z,17
2023-03-23T10:05:53.646Z,16
2023-03-23T10:11:09.953Z,12
2023-03-23T10:16:27.255Z,42
2023-03-23T10:21:43.565Z,22
2023-03-23T10:26:59.910Z,18
2023-03-23T10:32:16.235Z,14
2023-03-23T10:37:32.524Z,18
2023-03-23T10:42:48.875Z,18
2023-03-23T10:48:05.209Z,16
2023-03-23T10:53:22.089Z,19
2023-03-23T10:58:38.454Z,20
2023-03-23T11:03:54.784Z,16
2023-03-23T11:09:11.145Z,16
2023-03-23T11:14:27.531Z,14
2023-03-23T11:19:45.544Z,11
2023-03-23T11:25:00.203Z,10
2023-03-23T11:30:16.563Z,11
2023-03-23T11:35:33.299Z,11
2023-03-23T11:40:49.628Z,8
2023-03-23T11:46:05.913Z,10
2023-03-23T11:51:22.220Z,11
2023-03-23T11:56:38.555Z,10
2023-03-23T12:01:54.866Z,10
2023-03-23T12:07:11.195Z,14
2023-03-23T12:12:27.536Z,12
2023-03-23T12:17:43.802Z,10
2023-03-23T12:23:00.111Z,10
2023-03-23T12:28:16.411Z,6
2023-03-23T12:33:32.704Z,9
2023-03-23T12:38:48.997Z,11
2023-03-23T12:44:05.290Z,7
2023-03-23T12:49:21.566Z,8
2023-03-23T12:54:37.891Z,7
2023-03-23T12:59:58.371Z,8
2023-03-23T13:05:15.282Z,8
2023-03-23T13:10:31.741Z,9
2023-03-23T13:15:49.101Z,10
2023-03-23T13:21:05.167Z,12
2023-03-23T13:26:21.455Z,12
2023-03-23T13:31:37.771Z,11
2023-03-23T13:36:54.112Z,11
2023-03-23T13:42:10.403Z,12
2023-03-23T13:47:26.740Z,13
2023-03-23T13:52:43.113Z,13
2023-03-23T14:03:15.663Z,10
2023-03-23T14:08:31.944Z,9
2023-03-23T14:13:48.264Z,9
2023-03-23T14:19:04.616Z,8
2023-03-23T14:24:20.914Z,10
2023-03-23T14:29:37.242Z,7
2023-03-23T14:34:53.581Z,8
2023-03-23T14:40:09.866Z,8
2023-03-23T14:45:26.234Z,11
2023-03-23T14:50:42.542Z,10
2023-03-23T14:55:58.951Z,8
2023-03-23T15:01:15.306Z,8
2023-03-23T15:06:31.626Z,10
2023-03-23T15:11:47.999Z,12
2023-03-23T15:17:04.360Z,13
2023-03-23T15:22:20.692Z,14
2023-03-23T15:27:37.085Z,11
2023-03-23T15:32:54.809Z,9
2023-03-23T15:38:09.766Z,9
2023-03-23T15:43:26.150Z,10
2023-03-23T15:48:42.492Z,9
2023-03-23T15:54:02.916Z,10
2023-03-23T15:59:15.246Z,7
2023-03-23T16:04:31.570Z,8
2023-03-23T16:09:47.938Z,13
2023-03-23T16:15:04.273Z,10
2023-03-23T16:20:20.658Z,8
2023-03-23T16:25:37.789Z,12
2023-03-23T16:30:53.421Z,9
2023-03-23T16:36:09.796Z,10
2023-03-23T16:41:26.134Z,10
2023-03-23T16:46:42.483Z,14
2023-03-23T16:51:58.849Z,10
2023-03-23T16:57:15.181Z,18
2023-03-23T17:02:31.829Z,12
2023-03-23T17:07:47.925Z,12
2023-03-23T17:13:04.257Z,14
2023-03-23T17:18:20.658Z,14
2023-03-23T17:23:37.031Z,15
2023-03-23T17:28:53.448Z,16
2023-03-23T17:34:09.790Z,13
2023-03-23T17:39:26.161Z,16
2023-03-23T17:44:42.500Z,21
2023-03-23T17:49:58.914Z,20
2023-03-23T17:55:15.268Z,17
2023-03-23T18:00:31.647Z,22
2023-03-23T18:05:48.061Z,20
2023-03-23T18:11:04.413Z,17
2023-03-23T18:16:20.819Z,19
2023-03-23T18:21:37.165Z,17
2023-03-23T18:26:53.544Z,23
2023-03-23T18:32:09.794Z,55
2023-03-23T18:37:26.139Z,45
2023-03-23T18:42:42.861Z,47
2023-03-23T18:47:59.301Z,35
2023-03-23T18:53:15.970Z,43
2023-03-23T18:58:32.984Z,40
2023-03-23T19:03:49.724Z,41
2023-03-23T19:09:06.143Z,41
2023-03-23T19:14:22.961Z,52
2023-03-23T19:19:39.331Z,38
2023-03-23T19:24:55.754Z,32
2023-03-23T19:30:12.171Z,33
2023-03-23T19:35:28.550Z,33
2023-03-23T19:40:45.085Z,39
2023-03-23T19:46:01.566Z,41
2023-03-23T19:51:17.815Z,38
2023-03-23T19:56:34.437Z,37
2023-03-23T20:01:50.826Z,44
2023-03-23T20:07:07.898Z,41
2023-03-23T20:12:24.907Z,38
2023-03-23T20:17:41.103Z,32
2023-03-23T20:22:58.436Z,50
2023-03-23T20:28:14.549Z,59
2023-03-23T20:33:30.861Z,59
2023-03-23T20:38:47.214Z,55
2023-03-23T20:44:04.269Z,60
2023-03-23T20:49:20.646Z,54
2023-03-23T20:54:38.321Z,55
2023-03-23T20:59:54.608Z,51
2023-03-23T21:05:11.066Z,53
2023-03-23T21:10:27.496Z,52
2023-03-23T21:15:44.207Z,52
2023-03-23T21:21:00.563Z,46
2023-03-23T21:26:17.067Z,46
2023-03-23T21:31:33.894Z,43
2023-03-23T21:36:50.330Z,48
2023-03-23T21:42:06.779Z,40
2023-03-23T21:47:23.163Z,42
2023-03-23T21:52:39.558Z,41
2023-03-23T21:57:56.328Z,49
2023-03-23T22:03:13.206Z,47
2023-03-23T22:08:29.592Z,48
2023-03-23T22:13:46.492Z,43
2023-03-23T22:19:02.908Z,37
2023-03-23T22:24:19.431Z,36
2023-03-23T22:29:36.314Z,34
2023-03-23T22:34:52.763Z,36
2023-03-23T22:40:09.180Z,43
2023-03-23T22:45:26.263Z,62
2023-03-23T22:50:42.684Z,29
2023-03-23T22:55:58.992Z,34
2023-03-23T23:01:15.473Z,40
2023-03-23T23:06:32.449Z,43
2023-03-23T23:11:48.903Z,46
2023-03-23T23:17:05.353Z,44
2023-03-23T23:22:21.732Z,37
2023-03-23T23:27:38.154Z,37
2023-03-23T23:32:54.613Z,36
2023-03-23T23:38:10.972Z,31
2023-03-23T23:43:27.465Z,32
2023-03-23T23:48:44.085Z,28
2023-03-23T23:54:00.492Z,31
2023-03-23T23:59:16.874Z,26
